createdAt,value
2022-08-17T05:05:11.709Z,98.21
2022-08-17T05:15:16.824Z,92.44
2022-08-17T05:25:25.759Z,87.96
2022-08-17T05:35:31.813Z,87.09
2022-08-17T05:45:54.572Z,81.42
2022-08-17T05:56:30.305Z,78.44
2022-08-17T06:06:33.354Z,76.85
2022-08-17T06:16:41.455Z,75.18
2022-08-17T06:26:45.894Z,73.93
2022-08-17T06:36:54.538Z,72.79
2022-08-17T06:47:06.413Z,71.45
2022-08-17T06:57:20.076Z,67.51
2022-08-17T07:07:42.146Z,65.93
2022-08-17T07:17:48.402Z,60.91
2022-08-17T07:27:54.537Z,56.83
2022-08-17T07:38:25.770Z,52.05
2022-08-17T07:48:29.658Z,46.29
2022-08-17T07:58:32.434Z,35.78
2022-08-17T08:08:44.083Z,33.26
2022-08-17T08:18:54.020Z,25.52
2022-08-17T08:29:32.032Z,27.57
2022-08-17T08:39:55.208Z,32.71
2022-08-17T08:50:38.810Z,34.06
2022-08-17T09:00:48.488Z,36.79
2022-08-17T09:11:03.912Z,35.72
2022-08-17T09:21:48.004Z,35.02
2022-08-17T09:32:01.977Z,36.01
2022-08-17T09:42:14.457Z,36.54
2022-08-17T09:52:35.767Z,37.42
2022-08-17T10:02:54.907Z,36.24
2022-08-17T10:13:00.573Z,36.93
2022-08-17T10:23:41.354Z,34.40
2022-08-17T10:34:36.220Z,33.71
2022-08-17T10:45:02.440Z,35.51
2022-08-17T10:55:06.455Z,34.04
2022-08-17T11:05:20.816Z,34.21
2022-08-17T11:15:45.524Z,35.34
2022-08-17T11:26:04.427Z,32.04
2022-08-17T11:36:22.524Z,34.28
2022-08-17T11:47:08.564Z,33.96
2022-08-17T11:57:26.808Z,35.90
2022-08-17T12:07:32.951Z,38.85
2022-08-17T12:17:40.555Z,34.29
2022-08-17T12:28:04.940Z,35.46
2022-08-17T12:38:28.166Z,35.86
2022-08-17T12:48:34.656Z,37.66
2022-08-17T12:58:53.811Z,33.69
2022-08-17T13:08:56.612Z,35.60
2022-08-17T13:19:16.822Z,39.17
2022-08-17T13:29:28.763Z,39.31
2022-08-17T13:39:41.919Z,40.11
2022-08-17T13:49:49.028Z,45.70
2022-08-17T14:00:06.317Z,46.40
2022-08-17T14:10:12.010Z,46.10
2022-08-17T14:20:16.563Z,47.46
2022-08-17T14:30:20.411Z,47.92
2022-08-17T14:40:27.782Z,46.03
2022-08-17T14:50:30.596Z,47.65
2022-08-17T15:00:35.323Z,50.28
2022-08-17T15:10:39.357Z,49.76
2022-08-17T15:20:44.479Z,53.07
2022-08-17T15:30:47.045Z,49.88
2022-08-17T15:40:51.815Z,50.05
2022-08-17T15:50:54.381Z,50.90
2022-08-17T16:01:15.136Z,49.65
2022-08-17T16:11:21.124Z,50.95
2022-08-17T16:21:27.031Z,53.65
2022-08-17T16:31:29.940Z,54.65
2022-08-17T16:41:45.315Z,55.41
2022-08-17T16:51:48.767Z,56.40
2022-08-17T17:01:51.288Z,58.00
2022-08-17T17:11:57.801Z,60.90
2022-08-17T17:22:15.649Z,60.23
2022-08-17T17:32:49.804Z,58.77
2022-08-17T17:42:55.677Z,61.90
2022-08-17T17:53:19.574Z,64.95
2022-08-17T18:03:55.820Z,64.13
2022-08-17T18:14:32.443Z,65.89
2022-08-17T18:24:40.615Z,66.38
2022-08-17T18:34:47.608Z,67.86
2022-08-17T18:44:54.865Z,68.43
2022-08-17T18:55:25.278Z,68.73
2022-08-17T19:05:41.199Z,69.39
2022-08-17T19:16:12.058Z,68.39
2022-08-17T19:26:51.025Z,68.60
2022-08-17T19:36:56.062Z,67.61
2022-08-17T19:47:08.035Z,68.32
2022-08-17T19:57:26.103Z,70.19
2022-08-17T20:07:41.826Z,70.94
2022-08-17T20:17:48.067Z,71.09
2022-08-17T20:28:06.895Z,70.78
